Terminal Aerodrome Forecast
Issued by NWS North Platte, NE

Home | Current Version | Previous Version | Text Only | Print | Product List | Glossary Off
Versions: 1 2 3 4 5 6 7 8 9 10 11 12 13 14

000
FTUS43 KLBF 190500
TAFVTN
TAF
KVTN 190520Z 1906/2006 22012G20KT P6SM SCT250
     FM190800 26006KT P6SM SKC
     FM191800 33010KT P6SM SKC
     FM200000 VRB06KT P6SM SKC=

USA.gov is the U.S. government's official web portal to all federal, state and local government web resources and services.